Time;durP1;ratioP1;P1;durP2;ratioP2;P2;SDS_P1;SDS_P2;PMS_P1;PMS_P2;Temp;Humidity;BMP_temperature;BMP_pressure;BME280_temperature;BME280_humidity;BME280_pressure;Samples;Min_cycle;Max_cycle;Signal;HPM_P1;HPM_P2
2022/07/21 00:01:58;;;;;;;;;;;25.50;64.90;;;;;;6130124;23;19920;-81
2022/07/21 00:04:25;;;;;;;;;;;25.50;64.60;;;;;;6156689;23;19927;-85
2022/07/21 00:06:52;;;;;;;;;;;25.50;64.10;;;;;;6140085;23;19928;-86
2022/07/21 00:09:18;;;;;;;;;;;25.60;64.00;;;;;;6139558;23;19921;-83
2022/07/21 00:11:45;;;;;;;;;;;25.50;64.20;;;;;;6129124;23;19920;-84
2022/07/21 00:14:12;;;;;;;;;;;25.60;64.20;;;;;;6139059;23;19960;-83
2022/07/21 00:16:40;;;;;;;;;;;25.50;63.90;;;;;;6130997;23;19921;-83
2022/07/21 00:19:07;;;;;;;;;;;25.50;63.90;;;;;;6133109;23;20338;-82
2022/07/21 00:21:35;;;;;;;;;;;25.60;63.70;;;;;;6135469;23;19924;-82
2022/07/21 00:24:02;;;;;;;;;;;25.50;63.60;;;;;;6142429;23;19928;-82
2022/07/21 00:26:28;;;;;;;;;;;25.60;63.60;;;;;;6139036;23;19925;-85
2022/07/21 00:28:55;;;;;;;;;;;25.50;63.60;;;;;;6129405;23;20297;-85
2022/07/21 00:31:22;;;;;;;;;;;25.50;63.30;;;;;;6130335;23;19929;-86
2022/07/21 00:33:51;;;;;;;;;;;25.50;63.10;;;;;;6129046;23;19921;-87
2022/07/21 00:36:18;;;;;;;;;;;25.50;63.10;;;;;;6135750;23;19908;-83
2022/07/21 00:38:45;;;;;;;;;;;25.50;63.00;;;;;;6134129;23;20341;-85
2022/07/21 00:41:12;;;;;;;;;;;25.50;63.00;;;;;;6132784;23;19951;-82
2022/07/21 00:43:39;;;;;;;;;;;25.50;63.20;;;;;;6134402;23;19944;-89
2022/07/21 00:46:05;;;;;;;;;;;25.50;62.60;;;;;;6134382;23;20341;-82
2022/07/21 00:48:32;;;;;;;;;;;25.50;62.50;;;;;;6129809;23;19929;-84
2022/07/21 00:50:59;;;;;;;;;;;25.50;62.70;;;;;;6133569;23;20301;-82
2022/07/21 00:53:26;;;;;;;;;;;25.50;62.60;;;;;;6134735;23;19999;-83
2022/07/21 00:55:53;;;;;;;;;;;25.50;62.80;;;;;;6129558;23;19971;-82
2022/07/21 00:58:20;;;;;;;;;;;25.40;62.90;;;;;;6129408;23;19921;-85
2022/07/21 01:00:48;;;;;;;;;;;25.50;62.70;;;;;;6129194;23;19924;-84
2022/07/21 01:03:15;;;;;;;;;;;25.40;62.90;;;;;;6136478;23;19926;-86
2022/07/21 01:05:42;;;;;;;;;;;25.40;62.70;;;;;;6131253;23;19924;-83
2022/07/21 01:08:09;;;;;;;;;;;25.40;62.30;;;;;;6132024;23;19920;-82
2022/07/21 01:10:36;;;;;;;;;;;25.40;62.20;;;;;;6127544;23;20293;-85
2022/07/21 01:13:03;;;;;;;;;;;25.50;62.10;;;;;;6132598;23;20341;-84
2022/07/21 01:15:30;;;;;;;;;;;25.50;62.00;;;;;;6129864;23;19927;-82
2022/07/21 01:17:57;;;;;;;;;;;25.50;61.80;;;;;;6128975;23;19988;-83
2022/07/21 01:20:24;;;;;;;;;;;25.50;61.70;;;;;;6155363;23;19921;-84
2022/07/21 01:22:53;;;;;;;;;;;25.50;61.80;;;;;;6128824;23;19920;-83
2022/07/21 01:25:20;;;;;;;;;;;25.50;61.90;;;;;;6129581;23;19973;-82
2022/07/21 01:27:47;;;;;;;;;;;25.50;61.80;;;;;;6128665;23;20338;-87
2022/07/21 01:30:14;;;;;;;;;;;25.50;61.90;;;;;;6130069;23;20365;-82
2022/07/21 01:32:41;;;;;;;;;;;25.50;61.90;;;;;;6128330;23;19956;-82
2022/07/21 01:35:09;;;;;;;;;;;25.50;61.90;;;;;;6130201;23;20334;-85
2022/07/21 01:37:37;;;;;;;;;;;25.50;61.70;;;;;;6129210;23;20342;-84
2022/07/21 01:42:53;;;;;;;;;;;25.50;61.50;;;;;;6153458;23;19929;-81
2022/07/21 01:45:21;;;;;;;;;;;25.50;61.50;;;;;;6129402;23;19921;-84
2022/07/21 01:47:48;;;;;;;;;;;25.50;61.40;;;;;;6129926;23;19920;-86
2022/07/21 01:50:14;;;;;;;;;;;25.40;61.30;;;;;;6128609;23;19921;-85
2022/07/21 01:52:41;;;;;;;;;;;25.50;61.20;;;;;;6129032;23;20357;-81
2022/07/21 01:55:08;;;;;;;;;;;25.40;61.20;;;;;;6129417;23;20338;-85
2022/07/21 01:57:35;;;;;;;;;;;25.40;61.40;;;;;;6129037;23;19952;-81
2022/07/21 02:00:03;;;;;;;;;;;25.40;61.30;;;;;;6130826;23;19967;-83
2022/07/21 02:02:29;;;;;;;;;;;25.40;61.40;;;;;;6129857;23;19921;-86
2022/07/21 02:04:56;;;;;;;;;;;25.40;61.80;;;;;;6128083;23;19921;-82
2022/07/21 02:07:23;;;;;;;;;;;25.40;61.80;;;;;;6129632;23;19925;-81
2022/07/21 02:09:50;;;;;;;;;;;25.30;61.90;;;;;;6154253;23;20257;-82
2022/07/21 02:12:16;;;;;;;;;;;25.30;61.90;;;;;;6130376;23;19921;-82
2022/07/21 02:14:43;;;;;;;;;;;25.30;61.90;;;;;;6128404;23;19931;-81
2022/07/21 02:17:10;;;;;;;;;;;25.30;62.20;;;;;;6129469;23;19944;-84
2022/07/21 02:19:37;;;;;;;;;;;25.20;61.90;;;;;;6129271;23;19925;-84
2022/07/21 02:22:04;;;;;;;;;;;25.30;61.40;;;;;;6132695;23;20045;-81
2022/07/21 02:24:30;;;;;;;;;;;25.30;61.40;;;;;;6129729;23;19952;-81
2022/07/21 02:26:57;;;;;;;;;;;25.30;61.30;;;;;;6132751;23;20484;-82
2022/07/21 02:29:24;;;;;;;;;;;25.30;61.30;;;;;;6130361;23;19951;-83
2022/07/21 02:31:53;;;;;;;;;;;25.30;61.40;;;;;;6128585;23;20017;-83
2022/07/21 02:34:20;;;;;;;;;;;25.30;61.50;;;;;;6128869;23;19948;-82
2022/07/21 02:36:47;;;;;;;;;;;25.20;61.50;;;;;;6128280;23;19920;-83
2022/07/21 02:39:13;;;;;;;;;;;25.20;61.50;;;;;;6129266;23;20235;-83
2022/07/21 02:41:40;;;;;;;;;;;25.20;61.40;;;;;;6129264;23;19925;-81
2022/07/21 02:44:07;;;;;;;;;;;25.20;61.40;;;;;;6135338;23;19921;-83
2022/07/21 02:46:34;;;;;;;;;;;25.20;61.30;;;;;;6131447;23;19921;-83
2022/07/21 02:49:00;;;;;;;;;;;25.20;61.30;;;;;;6153888;23;19928;-87
2022/07/21 02:51:27;;;;;;;;;;;25.20;61.30;;;;;;6155788;23;19920;-83
2022/07/21 02:53:54;;;;;;;;;;;25.20;61.30;;;;;;6133058;23;19987;-83
2022/07/21 02:56:21;;;;;;;;;;;25.10;61.10;;;;;;6129100;23;20305;-85
2022/07/21 02:58:47;;;;;;;;;;;25.20;60.90;;;;;;6128812;23;19924;-81
2022/07/21 03:01:15;;;;;;;;;;;25.20;60.70;;;;;;6137562;23;19991;-85
2022/07/21 03:03:42;;;;;;;;;;;25.20;60.70;;;;;;6130394;23;19921;-83
2022/07/21 03:06:09;;;;;;;;;;;25.20;60.60;;;;;;6131253;23;20380;-82
2022/07/21 03:08:36;;;;;;;;;;;25.20;60.80;;;;;;6156308;23;19955;-83
2022/07/21 03:11:03;;;;;;;;;;;25.20;60.60;;;;;;6133477;23;19927;-84
2022/07/21 03:13:30;;;;;;;;;;;25.20;60.70;;;;;;6161926;23;19971;-83
2022/07/21 03:15:57;;;;;;;;;;;25.20;60.70;;;;;;6135086;23;20293;-85
2022/07/21 03:18:24;;;;;;;;;;;25.20;61.20;;;;;;6133782;23;19920;-81
2022/07/21 03:20:51;;;;;;;;;;;25.10;61.20;;;;;;6131166;23;19945;-84
2022/07/21 03:23:17;;;;;;;;;;;25.10;61.40;;;;;;6156166;23;19921;-85
2022/07/21 03:25:44;;;;;;;;;;;25.10;61.70;;;;;;6132175;23;19921;-85
2022/07/21 03:28:11;;;;;;;;;;;25.10;61.50;;;;;;6134214;23;20297;-83
2022/07/21 03:30:38;;;;;;;;;;;25.00;61.40;;;;;;6130986;23;19968;-85
2022/07/21 03:33:05;;;;;;;;;;;25.00;61.20;;;;;;6130217;23;20318;-82
2022/07/21 03:35:32;;;;;;;;;;;25.00;61.50;;;;;;6132591;23;19920;-83
2022/07/21 03:37:59;;;;;;;;;;;25.00;61.70;;;;;;6133940;23;20301;-83
2022/07/21 03:40:28;;;;;;;;;;;24.90;61.60;;;;;;6132978;23;19975;-84
2022/07/21 03:42:56;;;;;;;;;;;24.90;61.80;;;;;;6132218;23;19920;-83
2022/07/21 03:45:23;;;;;;;;;;;24.90;61.80;;;;;;6136748;23;19957;-84
2022/07/21 03:47:50;;;;;;;;;;;24.90;61.90;;;;;;6137090;23;19927;-81
2022/07/21 03:50:17;;;;;;;;;;;24.80;61.80;;;;;;6131389;23;19921;-81
2022/07/21 03:52:45;;;;;;;;;;;24.80;61.90;;;;;;6137401;23;19921;-82
2022/07/21 03:55:14;;;;;;;;;;;24.80;62.10;;;;;;6131672;23;20282;-85
2022/07/21 03:57:43;;;;;;;;;;;24.70;62.00;;;;;;6136502;23;19921;-83
2022/07/21 04:00:11;;;;;;;;;;;24.70;62.20;;;;;;6135581;23;19920;-82
2022/07/21 04:02:38;;;;;;;;;;;24.70;62.50;;;;;;6136716;23;19924;-87
2022/07/21 04:05:06;;;;;;;;;;;24.70;62.60;;;;;;6133562;23;19929;-83
2022/07/21 04:07:32;;;;;;;;;;;24.60;62.60;;;;;;6163997;23;19908;-88
2022/07/21 04:09:59;;;;;;;;;;;24.60;62.60;;;;;;6129878;23;19924;-81
2022/07/21 04:12:26;;;;;;;;;;;24.60;62.50;;;;;;6131651;23;20305;-85
2022/07/21 04:14:54;;;;;;;;;;;24.70;62.30;;;;;;6129068;23;19924;-84
2022/07/21 04:17:21;;;;;;;;;;;24.70;62.20;;;;;;6157181;23;20333;-85
2022/07/21 04:19:48;;;;;;;;;;;24.70;62.10;;;;;;6131305;23;19920;-81
2022/07/21 04:22:23;;;;;;;;;;;24.70;62.00;;;;;;6131602;23;20337;-82
2022/07/21 04:24:49;;;;;;;;;;;24.70;62.00;;;;;;6131320;23;19925;-81
2022/07/21 04:27:16;;;;;;;;;;;24.70;61.80;;;;;;6133400;23;19927;-84
2022/07/21 04:29:43;;;;;;;;;;;24.70;61.90;;;;;;6130000;23;19932;-85
2022/07/21 04:32:10;;;;;;;;;;;24.70;61.60;;;;;;6129302;23;19920;-86
2022/07/21 04:34:36;;;;;;;;;;;24.70;62.00;;;;;;6155407;23;19952;-82
2022/07/21 04:37:03;;;;;;;;;;;24.70;61.70;;;;;;6129564;23;19932;-85
2022/07/21 04:39:30;;;;;;;;;;;24.70;61.90;;;;;;6129781;23;20289;-82
2022/07/21 04:41:57;;;;;;;;;;;24.70;61.60;;;;;;6129723;23;20301;-81
2022/07/21 04:44:24;;;;;;;;;;;24.70;61.50;;;;;;6130243;23;19996;-84
2022/07/21 04:46:51;;;;;;;;;;;24.80;61.70;;;;;;6130932;23;19975;-83
2022/07/21 04:49:18;;;;;;;;;;;24.80;61.30;;;;;;6130208;23;19952;-83
2022/07/21 04:51:45;;;;;;;;;;;24.80;61.20;;;;;;6132039;23;19936;-81
2022/07/21 04:54:13;;;;;;;;;;;24.90;61.00;;;;;;6129267;23;19921;-85
2022/07/21 04:56:41;;;;;;;;;;;24.90;60.90;;;;;;6156383;23;19925;-82
2022/07/21 04:59:08;;;;;;;;;;;24.90;61.00;;;;;;6131832;23;19929;-83
2022/07/21 05:01:36;;;;;;;;;;;24.90;60.80;;;;;;6130774;23;19925;-85
2022/07/21 05:04:03;;;;;;;;;;;24.90;60.90;;;;;;6132642;23;19944;-82
2022/07/21 05:06:30;;;;;;;;;;;24.90;60.90;;;;;;6131090;23;19921;-81
2022/07/21 05:08:57;;;;;;;;;;;24.90;60.80;;;;;;6131205;23;19925;-81
2022/07/21 05:11:24;;;;;;;;;;;25.00;60.50;;;;;;6132329;23;20295;-81
2022/07/21 05:13:51;;;;;;;;;;;25.00;60.70;;;;;;6129695;23;19925;-84
2022/07/21 05:16:18;;;;;;;;;;;25.10;60.30;;;;;;6130576;23;19927;-84
2022/07/21 05:18:45;;;;;;;;;;;25.10;60.50;;;;;;6129509;23;19928;-82
2022/07/21 05:21:12;;;;;;;;;;;25.10;60.40;;;;;;6128556;23;20018;-84
2022/07/21 05:23:38;;;;;;;;;;;25.10;60.30;;;;;;6129119;23;19944;-83
2022/07/21 05:26:05;;;;;;;;;;;25.20;60.10;;;;;;6127980;23;19924;-82
2022/07/21 05:28:32;;;;;;;;;;;25.20;59.80;;;;;;6128919;23;19932;-84
2022/07/21 05:30:59;;;;;;;;;;;25.20;59.90;;;;;;6154986;23;19975;-82
2022/07/21 05:33:26;;;;;;;;;;;25.30;60.30;;;;;;6128964;23;20350;-84
2022/07/21 05:35:53;;;;;;;;;;;25.30;59.90;;;;;;6129712;23;19975;-84
2022/07/21 05:38:19;;;;;;;;;;;25.40;59.40;;;;;;6133018;23;19925;-84
2022/07/21 05:40:53;;;;;;;;;;;25.40;59.30;;;;;;6129748;23;20547;-84
2022/07/21 05:43:20;;;;;;;;;;;25.40;59.60;;;;;;6155779;23;19980;-82
2022/07/21 05:45:47;;;;;;;;;;;25.40;59.40;;;;;;6132782;23;19971;-84
2022/07/21 05:48:15;;;;;;;;;;;25.40;58.90;;;;;;6128709;23;20266;-84
2022/07/21 05:50:41;;;;;;;;;;;25.40;59.00;;;;;;6128768;23;19921;-84
2022/07/21 05:53:08;;;;;;;;;;;25.50;59.10;;;;;;6133741;23;19925;-82
2022/07/21 05:55:35;;;;;;;;;;;25.50;58.50;;;;;;6134626;23;20257;-83
2022/07/21 05:58:02;;;;;;;;;;;25.60;58.60;;;;;;6137845;23;19924;-83
2022/07/21 06:00:36;;;;;;;;;;;25.60;58.30;;;;;;6135833;23;19921;-86
2022/07/21 06:03:03;;;;;;;;;;;25.70;57.80;;;;;;6153672;23;19924;-82
2022/07/21 06:05:38;;;;;;;;;;;25.80;58.10;;;;;;6131131;23;20294;-82
2022/07/21 06:08:05;;;;;;;;;;;25.80;59.10;;;;;;6128847;23;19924;-85
2022/07/21 06:10:31;;;;;;;;;;;25.80;58.20;;;;;;6128329;23;20230;-86
2022/07/21 06:12:59;;;;;;;;;;;25.90;58.00;;;;;;6132745;23;19971;-84
2022/07/21 06:15:26;;;;;;;;;;;25.90;57.20;;;;;;6130113;23;19920;-82
2022/07/21 06:17:53;;;;;;;;;;;26.00;57.60;;;;;;6128064;23;19995;-83
2022/07/21 06:20:21;;;;;;;;;;;26.00;57.10;;;;;;6131757;23;20400;-83
2022/07/21 06:22:47;;;;;;;;;;;26.00;57.10;;;;;;6129106;23;19925;-85
2022/07/21 06:25:14;;;;;;;;;;;26.10;57.20;;;;;;6129081;23;20396;-82
2022/07/21 06:27:41;;;;;;;;;;;26.20;57.60;;;;;;6129135;23;20334;-83
2022/07/21 06:30:08;;;;;;;;;;;26.20;57.10;;;;;;6127761;23;20393;-84
2022/07/21 06:32:35;;;;;;;;;;;26.30;57.10;;;;;;6154185;23;20342;-81
2022/07/21 06:35:02;;;;;;;;;;;26.40;56.60;;;;;;6129315;23;20357;-83
2022/07/21 06:37:29;;;;;;;;;;;26.40;56.60;;;;;;6129542;23;19943;-82
2022/07/21 06:39:56;;;;;;;;;;;26.50;56.10;;;;;;6130700;23;19928;-85
2022/07/21 06:42:23;;;;;;;;;;;26.50;55.50;;;;;;6131633;23;19921;-82
2022/07/21 06:44:50;;;;;;;;;;;26.60;54.90;;;;;;6130488;23;19921;-83
2022/07/21 06:47:19;;;;;;;;;;;26.60;55.10;;;;;;6131203;23;19920;-85
2022/07/21 06:49:46;;;;;;;;;;;26.60;55.00;;;;;;6130489;23;20357;-86
2022/07/21 06:52:13;;;;;;;;;;;26.70;54.80;;;;;;6130790;23;19921;-86
2022/07/21 06:54:40;;;;;;;;;;;26.70;54.80;;;;;;6155998;23;20426;-82
2022/07/21 06:57:07;;;;;;;;;;;26.80;54.50;;;;;;6129203;23;19921;-84
2022/07/21 06:59:33;;;;;;;;;;;26.80;54.40;;;;;;6131711;23;19921;-86
2022/07/21 07:02:00;;;;;;;;;;;26.90;54.50;;;;;;6129980;23;19920;-84
2022/07/21 07:04:28;;;;;;;;;;;27.00;54.40;;;;;;6133444;23;20301;-83
2022/07/21 07:06:55;;;;;;;;;;;27.10;54.30;;;;;;6129940;23;19931;-82
2022/07/21 07:09:23;;;;;;;;;;;27.20;54.00;;;;;;6130075;23;19920;-87
2022/07/21 07:11:52;;;;;;;;;;;27.20;53.90;;;;;;6131305;23;20000;-84
2022/07/21 07:14:38;;;;;;;;;;;27.40;54.40;;;;;;6136635;23;19973;-82
2022/07/21 07:17:05;;;;;;;;;;;27.50;53.90;;;;;;6131938;23;19925;-86
2022/07/21 07:19:32;;;;;;;;;;;27.70;52.50;;;;;;6130012;23;19943;-85
2022/07/21 07:21:59;;;;;;;;;;;27.70;52.10;;;;;;6130774;23;19921;-86
2022/07/21 07:24:26;;;;;;;;;;;27.80;52.00;;;;;;6130417;23;19979;-85
2022/07/21 07:26:53;;;;;;;;;;;27.90;51.20;;;;;;6132440;23;20249;-83
2022/07/21 07:29:19;;;;;;;;;;;28.00;51.70;;;;;;6130656;23;20326;-84
2022/07/21 07:31:46;;;;;;;;;;;28.10;51.20;;;;;;6157609;23;19920;-84
2022/07/21 07:34:13;;;;;;;;;;;28.20;50.70;;;;;;6132836;23;19921;-81
2022/07/21 07:36:40;;;;;;;;;;;28.30;50.40;;;;;;6133081;23;19921;-81
2022/07/21 07:39:11;;;;;;;;;;;28.40;50.20;;;;;;6135053;23;19972;-82
2022/07/21 07:41:38;;;;;;;;;;;28.50;50.10;;;;;;6129316;23;19965;-83
2022/07/21 07:44:05;;;;;;;;;;;28.60;51.00;;;;;;6156439;23;19924;-86
2022/07/21 07:46:32;;;;;;;;;;;28.70;50.90;;;;;;6129797;23;19971;-86
2022/07/21 07:48:59;;;;;;;;;;;29.00;49.80;;;;;;6155164;23;20013;-83
2022/07/21 07:51:35;;;;;;;;;;;29.20;49.60;;;;;;6162067;23;19929;-82
2022/07/21 07:54:03;;;;;;;;;;;29.40;49.80;;;;;;6132162;23;19920;-80
2022/07/21 07:56:30;;;;;;;;;;;29.50;48.70;;;;;;6134166;23;19952;-82
2022/07/21 07:58:57;;;;;;;;;;;29.70;48.90;;;;;;6129617;23;20408;-81
2022/07/21 08:01:25;;;;;;;;;;;29.80;48.50;;;;;;6161649;23;20278;-84
2022/07/21 08:03:51;;;;;;;;;;;30.00;47.90;;;;;;6129636;23;19929;-80
2022/07/21 08:06:19;;;;;;;;;;;30.10;47.30;;;;;;6132813;23;20293;-84
2022/07/21 08:08:46;;;;;;;;;;;30.30;47.40;;;;;;6131936;23;19920;-81
2022/07/21 08:11:13;;;;;;;;;;;30.30;46.70;;;;;;6129614;23;19971;-83
2022/07/21 08:13:40;;;;;;;;;;;30.30;46.80;;;;;;6129120;23;19976;-81
2022/07/21 08:16:07;;;;;;;;;;;30.40;46.80;;;;;;6129826;23;20337;-82
2022/07/21 08:18:33;;;;;;;;;;;30.50;46.70;;;;;;6130715;23;19920;-85
2022/07/21 08:21:00;;;;;;;;;;;30.60;46.00;;;;;;6130004;23;19920;-83
2022/07/21 08:23:27;;;;;;;;;;;30.60;45.60;;;;;;6153105;23;19925;-84
2022/07/21 08:25:54;;;;;;;;;;;30.70;45.50;;;;;;6130192;23;19987;-85
2022/07/21 08:28:21;;;;;;;;;;;30.80;45.50;;;;;;6129654;23;20243;-84
2022/07/21 08:30:48;;;;;;;;;;;31.00;44.50;;;;;;6156067;23;19921;-82
2022/07/21 08:33:14;;;;;;;;;;;31.10;43.60;;;;;;6128066;23;20169;-85
2022/07/21 08:35:41;;;;;;;;;;;31.30;42.90;;;;;;6126589;23;19929;-83
2022/07/21 08:38:09;;;;;;;;;;;31.40;43.10;;;;;;6129413;23;19921;-84
2022/07/21 08:40:38;;;;;;;;;;;31.50;42.20;;;;;;6129513;23;19928;-83
2022/07/21 08:43:06;;;;;;;;;;;31.60;41.40;;;;;;6130738;23;19921;-83
2022/07/21 08:45:33;;;;;;;;;;;31.70;40.80;;;;;;6128506;23;19931;-83
2022/07/21 08:48:00;;;;;;;;;;;31.60;39.80;;;;;;6133627;23;19920;-86
2022/07/21 08:50:31;;;;;;;;;;;31.60;40.10;;;;;;6129152;23;19928;-82
2022/07/21 08:52:58;;;;;;;;;;;31.60;40.20;;;;;;6132863;23;20338;-81
2022/07/21 08:55:30;;;;;;;;;;;31.70;40.10;;;;;;6128771;23;20669;-82
2022/07/21 08:57:57;;;;;;;;;;;31.70;39.60;;;;;;6140737;23;19920;-85
2022/07/21 09:00:25;;;;;;;;;;;31.80;39.10;;;;;;6134050;23;20368;-81
2022/07/21 09:03:11;;;;;;;;;;;31.80;38.90;;;;;;6130158;23;19996;-85
2022/07/21 09:05:39;;;;;;;;;;;31.80;39.20;;;;;;6131471;23;19925;-82
2022/07/21 09:08:06;;;;;;;;;;;31.80;38.80;;;;;;6155575;23;19983;-84
2022/07/21 09:10:33;;;;;;;;;;;31.80;39.40;;;;;;6126294;23;19928;-83
2022/07/21 09:13:02;;;;;;;;;;;31.80;38.90;;;;;;6129954;23;20342;-82
2022/07/21 09:15:31;;;;;;;;;;;31.90;38.30;;;;;;6126665;23;19920;-82
2022/07/21 09:18:06;;;;;;;;;;;31.90;38.80;;;;;;6153508;23;19921;-83
2022/07/21 09:20:37;;;;;;;;;;;32.00;38.00;;;;;;6128975;23;19925;-85
2022/07/21 09:23:07;;;;;;;;;;;32.10;38.10;;;;;;6129177;23;19929;-84
2022/07/21 09:25:35;;;;;;;;;;;32.10;37.80;;;;;;6126988;23;19967;-85
2022/07/21 09:28:14;;;;;;;;;;;32.30;38.30;;;;;;6127872;23;20312;-84
2022/07/21 09:30:48;;;;;;;;;;;32.60;37.30;;;;;;6121556;23;20889;-81
2022/07/21 09:33:20;;;;;;;;;;;32.70;37.90;;;;;;6099619;23;19921;-82
2022/07/21 09:35:53;;;;;;;;;;;32.90;37.20;;;;;;6127383;23;19925;-84
2022/07/21 09:38:20;;;;;;;;;;;33.10;35.90;;;;;;6155267;23;19928;-82
2022/07/21 09:40:47;;;;;;;;;;;33.20;35.80;;;;;;6127976;23;19924;-84
2022/07/21 09:43:43;;;;;;;;;;;33.20;35.50;;;;;;6123742;23;20346;-81
2022/07/21 09:46:12;;;;;;;;;;;33.30;35.20;;;;;;6100261;23;19996;-84
2022/07/21 09:48:39;;;;;;;;;;;33.50;35.20;;;;;;6124929;23;19921;-82
2022/07/21 09:51:29;;;;;;;;;;;33.50;35.70;;;;;;6122579;23;20333;-84
2022/07/21 09:54:00;;;;;;;;;;;33.50;36.70;;;;;;6122450;23;20309;-82
2022/07/21 09:56:47;;;;;;;;;;;33.50;36.40;;;;;;6123558;23;19921;-83
2022/07/21 09:59:14;;;;;;;;;;;33.60;35.50;;;;;;6122984;23;19921;-84
2022/07/21 10:01:41;;;;;;;;;;;33.80;34.40;;;;;;6122144;23;19921;-81
2022/07/21 10:04:08;;;;;;;;;;;34.00;34.80;;;;;;6122844;23;20257;-83
2022/07/21 10:06:36;;;;;;;;;;;34.20;34.00;;;;;;6130889;23;19949;-84
2022/07/21 10:09:05;;;;;;;;;;;34.30;32.90;;;;;;6123156;23;19921;-82
2022/07/21 10:11:32;;;;;;;;;;;34.50;33.70;;;;;;6125197;23;19987;-81
2022/07/21 10:13:58;;;;;;;;;;;34.60;33.50;;;;;;6124991;23;19921;-82
2022/07/21 10:16:25;;;;;;;;;;;34.70;33.00;;;;;;6124976;23;19933;-83
2022/07/21 10:18:52;;;;;;;;;;;34.80;32.00;;;;;;6125244;23;19921;-82
2022/07/21 10:21:29;;;;;;;;;;;34.90;32.20;;;;;;6126757;23;19925;-82
2022/07/21 10:23:56;;;;;;;;;;;34.90;32.30;;;;;;6126071;23;20392;-83
2022/07/21 10:26:23;;;;;;;;;;;35.00;32.00;;;;;;6125643;23;19928;-83
2022/07/21 10:28:50;;;;;;;;;;;35.10;31.90;;;;;;6125380;23;19925;-84
2022/07/21 10:31:21;;;;;;;;;;;35.10;30.60;;;;;;6149901;23;20018;-83
2022/07/21 10:33:48;;;;;;;;;;;35.00;30.50;;;;;;6126202;23;19921;-82
2022/07/21 10:36:28;;;;;;;;;;;35.00;30.10;;;;;;6149459;23;19943;-84
2022/07/21 10:39:07;;;;;;;;;;;35.10;30.80;;;;;;6150379;23;19925;-82
2022/07/21 10:41:38;;;;;;;;;;;35.20;32.30;;;;;;6154205;23;20021;-82
2022/07/21 10:44:24;;;;;;;;;;;35.30;30.80;;;;;;6156149;23;19983;-82
2022/07/21 10:47:07;;;;;;;;;;;35.30;30.30;;;;;;6125462;23;19996;-84
2022/07/21 10:49:45;;;;;;;;;;;35.40;31.10;;;;;;6130119;23;19925;-81
2022/07/21 10:52:45;;;;;;;;;;;35.40;30.90;;;;;;6130780;23;19991;-83
2022/07/21 10:55:28;;;;;;;;;;;35.40;30.60;;;;;;6116759;23;20338;-80
2022/07/21 10:58:16;;;;;;;;;;;35.50;31.10;;;;;;6132929;23;19996;-83
2022/07/21 11:00:44;;;;;;;;;;;35.60;30.60;;;;;;6133007;23;20046;-84
2022/07/21 11:03:23;;;;;;;;;;;35.70;30.70;;;;;;6131580;23;19975;-82
2022/07/21 11:06:05;;;;;;;;;;;35.80;30.30;;;;;;6129625;23;20007;-80
2022/07/21 11:08:32;;;;;;;;;;;35.80;30.30;;;;;;6136466;23;20349;-80
2022/07/21 11:11:14;;;;;;;;;;;35.80;30.80;;;;;;6127294;23;19924;-85
2022/07/21 11:13:59;;;;;;;;;;;35.80;31.40;;;;;;6126476;23;19925;-84
2022/07/21 11:16:38;;;;;;;;;;;35.90;30.30;;;;;;6123903;23;20389;-84
2022/07/21 11:19:05;;;;;;;;;;;35.90;30.50;;;;;;6128300;23;19925;-85
2022/07/21 11:21:32;;;;;;;;;;;36.00;31.20;;;;;;6100672;23;19921;-84
2022/07/21 11:23:58;;;;;;;;;;;36.00;30.50;;;;;;6127892;23;19928;-84
2022/07/21 11:26:25;;;;;;;;;;;36.10;31.00;;;;;;6129801;23;20360;-81
2022/07/21 11:29:05;;;;;;;;;;;36.20;30.90;;;;;;6158194;23;19921;-84
2022/07/21 11:31:44;;;;;;;;;;;36.10;30.00;;;;;;6129530;23;19924;-83
2022/07/21 11:34:12;;;;;;;;;;;36.10;30.50;;;;;;6134031;23;19924;-82
2022/07/21 11:36:39;;;;;;;;;;;36.10;31.30;;;;;;6143191;23;20284;-83
2022/07/21 11:39:07;;;;;;;;;;;36.20;31.30;;;;;;6134971;23;19928;-81
2022/07/21 11:41:35;;;;;;;;;;;36.20;30.00;;;;;;6135215;23;20043;-84
2022/07/21 11:44:02;;;;;;;;;;;36.20;30.40;;;;;;6139067;23;20333;-83
2022/07/21 11:46:44;;;;;;;;;;;36.30;29.80;;;;;;6131624;23;19920;-84
2022/07/21 11:49:10;;;;;;;;;;;36.30;30.40;;;;;;6129108;23;19975;-81
2022/07/21 11:51:37;;;;;;;;;;;36.50;30.00;;;;;;6128666;23;19920;-85
2022/07/21 11:54:04;;;;;;;;;;;36.50;29.20;;;;;;6128697;23;19929;-85
2022/07/21 11:56:38;;;;;;;;;;;36.50;30.10;;;;;;6128663;23;19964;-84
2022/07/21 11:59:09;;;;;;;;;;;36.50;30.60;;;;;;6130993;23;19924;-86
2022/07/21 12:01:49;;;;;;;;;;;36.50;30.30;;;;;;6133556;23;19955;-81
2022/07/21 12:04:29;;;;;;;;;;;36.50;30.20;;;;;;6157229;23;19963;-86
2022/07/21 12:06:57;;;;;;;;;;;36.50;29.10;;;;;;6129018;23;19920;-86
2022/07/21 12:09:24;;;;;;;;;;;36.50;29.70;;;;;;6129291;23;19921;-82
2022/07/21 12:11:51;;;;;;;;;;;36.50;29.50;;;;;;6128828;23;19925;-84
2022/07/21 12:14:18;;;;;;;;;;;36.50;29.20;;;;;;6129414;23;19920;-85
2022/07/21 12:16:48;;;;;;;;;;;36.50;29.50;;;;;;6154689;23;19920;-81
2022/07/21 12:19:16;;;;;;;;;;;36.50;30.00;;;;;;6124304;23;20375;-83
2022/07/21 12:21:53;;;;;;;;;;;36.50;29.30;;;;;;6099470;23;19921;-86
2022/07/21 12:24:21;;;;;;;;;;;36.50;29.20;;;;;;6100166;23;19921;-84
2022/07/21 12:26:48;;;;;;;;;;;36.50;30.00;;;;;;6099445;23;19972;-84
2022/07/21 12:29:25;;;;;;;;;;;36.70;30.30;;;;;;6100989;23;19956;-85
2022/07/21 12:31:52;;;;;;;;;;;36.80;29.40;;;;;;6104233;23;19922;-82
2022/07/21 12:34:23;;;;;;;;;;;36.80;29.30;;;;;;6109305;23;19941;-81
2022/07/21 12:36:53;;;;;;;;;;;36.90;29.10;;;;;;6107007;23;19948;-82
2022/07/21 12:42:11;;;;;;;;;;;37.10;28.80;;;;;;6154565;23;19980;-85
2022/07/21 12:44:38;;;;;;;;;;;37.20;28.30;;;;;;6130114;23;19925;-86
2022/07/21 12:47:14;;;;;;;;;;;37.20;28.10;;;;;;6154148;23;19921;-81
2022/07/21 12:49:57;;;;;;;;;;;37.20;28.80;;;;;;6125300;23;19925;-82
2022/07/21 12:52:40;;;;;;;;;;;37.30;29.10;;;;;;6109008;23;19979;-84
2022/07/21 12:55:07;;;;;;;;;;;37.50;29.00;;;;;;6104364;23;19940;-84
2022/07/21 12:57:34;;;;;;;;;;;37.50;28.70;;;;;;6100903;23;19921;-83
2022/07/21 13:00:01;;;;;;;;;;;37.50;27.90;;;;;;6131559;23;19956;-85
2022/07/21 13:02:29;;;;;;;;;;;37.50;29.00;;;;;;6105494;23;19921;-83
2022/07/21 13:04:56;;;;;;;;;;;37.60;27.80;;;;;;6100556;23;19983;-81
2022/07/21 13:07:23;;;;;;;;;;;37.40;28.00;;;;;;6098797;23;19927;-82
2022/07/21 13:09:51;;;;;;;;;;;37.40;27.90;;;;;;6125609;23;20396;-85
2022/07/21 13:12:18;;;;;;;;;;;37.50;27.70;;;;;;6098892;23;20301;-82
2022/07/21 13:14:45;;;;;;;;;;;37.60;28.20;;;;;;6099985;23;19976;-81
2022/07/21 13:17:11;;;;;;;;;;;37.60;27.90;;;;;;6123143;23;20360;-83
2022/07/21 13:19:38;;;;;;;;;;;37.60;27.40;;;;;;6098546;23;20296;-78
2022/07/21 13:22:05;;;;;;;;;;;37.80;28.10;;;;;;6099412;23;19976;-83
2022/07/21 13:24:32;;;;;;;;;;;38.10;28.10;;;;;;6099030;23;19929;-84
2022/07/21 13:26:59;;;;;;;;;;;38.30;27.90;;;;;;6125928;23;19921;-83
2022/07/21 13:29:26;;;;;;;;;;;38.40;27.30;;;;;;6099074;23;20342;-83
2022/07/21 13:31:53;;;;;;;;;;;38.40;27.10;;;;;;6100917;23;20258;-80
2022/07/21 13:34:20;;;;;;;;;;;38.50;26.80;;;;;;6098945;23;19941;-83
2022/07/21 13:36:46;;;;;;;;;;;38.60;26.50;;;;;;6100614;23;19968;-82
2022/07/21 13:39:13;;;;;;;;;;;38.50;26.20;;;;;;6100334;23;19929;-83
2022/07/21 13:42:00;;;;;;;;;;;38.50;26.10;;;;;;6155654;23;19956;-83
2022/07/21 13:44:47;;;;;;;;;;;38.60;26.00;;;;;;6132128;23;19999;-83
2022/07/21 13:47:13;;;;;;;;;;;38.60;26.40;;;;;;6130022;23;19920;-82
2022/07/21 13:49:40;;;;;;;;;;;38.60;25.80;;;;;;6128456;23;19924;-80
2022/07/21 13:52:08;;;;;;;;;;;38.40;26.30;;;;;;6129124;23;19921;-83
2022/07/21 13:54:35;;;;;;;;;;;38.40;26.30;;;;;;6129381;23;19920;-82
2022/07/21 13:57:02;;;;;;;;;;;38.40;26.20;;;;;;6128469;23;19921;-83
2022/07/21 13:59:29;;;;;;;;;;;38.40;26.10;;;;;;6128508;23;19975;-83
2022/07/21 14:01:56;;;;;;;;;;;38.60;26.40;;;;;;6154101;23;19925;-82
2022/07/21 14:04:23;;;;;;;;;;;38.70;26.10;;;;;;6128729;23;19927;-80
2022/07/21 14:06:52;;;;;;;;;;;38.80;25.50;;;;;;6155415;23;19921;-85
2022/07/21 14:09:19;;;;;;;;;;;38.90;25.50;;;;;;6129659;23;19924;-81
2022/07/21 14:11:47;;;;;;;;;;;39.00;25.80;;;;;;6128549;23;19925;-80
2022/07/21 14:14:20;;;;;;;;;;;38.90;26.00;;;;;;6129145;23;19921;-82
2022/07/21 14:16:50;;;;;;;;;;;38.90;26.00;;;;;;6127836;23;19921;-80
2022/07/21 14:19:17;;;;;;;;;;;38.90;26.40;;;;;;6128960;23;19996;-83
2022/07/21 14:21:44;;;;;;;;;;;38.80;26.10;;;;;;6127997;23;19955;-83
2022/07/21 14:27:13;;;;;;;;;;;38.70;26.70;;;;;;6122430;23;19925;-84
2022/07/21 14:29:41;;;;;;;;;;;38.90;26.30;;;;;;6123169;23;19927;-82
2022/07/21 14:32:07;;;;;;;;;;;39.00;25.80;;;;;;6153089;23;19924;-84
2022/07/21 14:34:34;;;;;;;;;;;39.00;26.00;;;;;;6127809;23;19924;-84